createdAt,value
2023-05-22T00:01:12.171Z,100131.00
2023-05-22T00:03:42.434Z,100139.00
2023-05-22T00:06:11.889Z,100135.38
2023-05-22T00:08:41.744Z,100140.09
2023-05-22T00:11:09.988Z,100143.78
2023-05-22T00:13:39.437Z,100140.47
2023-05-22T00:16:08.508Z,100136.47
2023-05-22T00:18:36.672Z,100133.81
2023-05-22T00:21:10.309Z,100134.53
2023-05-22T00:23:42.355Z,100129.19
2023-05-22T00:26:11.643Z,100125.72
2023-05-22T00:28:41.582Z,100129.56
2023-05-22T00:31:10.478Z,100129.09
2023-05-22T00:33:41.222Z,100113.91
2023-05-22T00:36:10.789Z,100113.25
2023-05-22T00:38:42.338Z,100112.41
2023-05-22T00:41:10.976Z,100108.97
2023-05-22T00:43:41.474Z,100111.50
2023-05-22T00:46:09.974Z,100110.22
2023-05-22T00:48:40.222Z,100117.06
2023-05-22T00:51:11.184Z,100113.94
2023-05-22T00:53:39.859Z,100115.31
2023-05-22T00:56:09.295Z,100113.28
2023-05-22T00:58:38.024Z,100119.94
2023-05-22T01:01:11.467Z,100118.16
2023-05-22T01:03:45.157Z,100116.38
2023-05-22T01:06:14.733Z,100121.72
2023-05-22T01:08:43.422Z,100117.56
2023-05-22T01:11:19.127Z,100117.72
2023-05-22T01:13:56.445Z,100122.41
2023-05-22T01:16:33.757Z,100114.94
2023-05-22T01:19:11.824Z,100113.28
2023-05-22T01:21:49.220Z,100115.81
2023-05-22T01:24:59.785Z,100118.31
2023-05-22T01:27:51.306Z,100133.28
2023-05-22T01:30:49.639Z,100123.34
2023-05-22T01:33:21.678Z,100119.53
2023-05-22T01:35:54.018Z,100120.72
2023-05-22T01:38:22.776Z,100126.56
2023-05-22T01:40:51.821Z,100124.25
2023-05-22T01:43:20.434Z,100129.75
2023-05-22T01:45:48.782Z,100126.63
2023-05-22T01:48:19.361Z,100128.44
2023-05-22T01:50:54.832Z,100127.97
2023-05-22T01:53:35.636Z,100129.31
2023-05-22T01:56:11.088Z,100127.63
2023-05-22T01:58:46.096Z,100130.00
2023-05-22T02:01:18.036Z,100129.16
2023-05-22T02:03:48.462Z,100127.50
2023-05-22T02:06:20.807Z,100128.66
2023-05-22T02:08:50.656Z,100132.31
2023-05-22T02:11:21.667Z,100125.66
2023-05-22T02:13:51.844Z,100126.66
2023-05-22T02:16:22.215Z,100136.50
2023-05-22T02:18:51.685Z,100127.19
2023-05-22T02:21:25.197Z,100128.31
2023-05-22T02:23:53.726Z,100132.69
2023-05-22T02:26:23.748Z,100129.34
2023-05-22T02:28:52.160Z,100127.38
2023-05-22T02:31:20.702Z,100128.56
2023-05-22T02:33:48.949Z,100129.38
2023-05-22T02:36:26.249Z,100126.53
2023-05-22T02:38:58.494Z,100123.03
2023-05-22T02:41:27.508Z,100122.38
2023-05-22T02:43:56.258Z,100123.56
2023-05-22T02:46:25.030Z,100135.06
2023-05-22T02:48:53.225Z,100124.56
2023-05-22T02:51:25.890Z,100122.75
2023-05-22T02:53:54.398Z,100127.72
2023-05-22T02:56:27.932Z,100121.38
2023-05-22T02:58:57.398Z,100127.72
2023-05-22T03:01:30.663Z,100127.88
2023-05-22T03:04:00.337Z,100129.25
2023-05-22T03:06:34.582Z,100131.91
2023-05-22T03:09:04.512Z,100131.41
2023-05-22T03:11:33.348Z,100133.91
2023-05-22T03:14:04.274Z,100133.06
2023-05-22T03:16:34.625Z,100136.56
2023-05-22T03:19:10.614Z,100141.06
2023-05-22T03:21:41.824Z,100133.41
2023-05-22T03:24:10.179Z,100134.75
2023-05-22T03:26:39.494Z,100142.75
2023-05-22T03:29:10.528Z,100142.09
2023-05-22T03:31:42.134Z,100139.44
2023-05-22T03:34:16.660Z,100131.66
2023-05-22T03:36:48.878Z,100133.69
2023-05-22T03:39:19.592Z,100138.16
2023-05-22T03:41:58.835Z,100132.94
2023-05-22T03:44:28.262Z,100144.06
2023-05-22T03:46:56.910Z,100133.31
2023-05-22T03:49:25.198Z,100133.50
2023-05-22T03:51:56.021Z,100137.16
2023-05-22T03:54:27.470Z,100135.34
2023-05-22T03:57:01.604Z,100131.16
2023-05-22T03:59:32.317Z,100131.84
2023-05-22T04:02:01.233Z,100133.50
2023-05-22T04:04:32.481Z,100128.00
2023-05-22T04:07:08.201Z,100135.63
2023-05-22T04:09:37.414Z,100140.31
2023-05-22T04:12:06.434Z,100140.78
2023-05-22T04:14:34.969Z,100138.28
2023-05-22T04:17:06.133Z,100137.47
2023-05-22T04:19:35.205Z,100137.97
2023-05-22T04:22:08.730Z,100145.44
2023-05-22T04:24:43.476Z,100143.41
2023-05-22T04:27:13.996Z,100144.25
2023-05-22T04:29:44.974Z,100152.91
2023-05-22T04:32:17.931Z,100162.91
2023-05-22T04:34:51.976Z,100161.06
2023-05-22T04:37:22.379Z,100165.75
2023-05-22T04:39:53.579Z,100159.59
2023-05-22T04:42:22.652Z,100166.91
2023-05-22T04:44:53.140Z,100172.25
2023-05-22T04:47:24.117Z,100177.75
2023-05-22T04:49:53.058Z,100178.25
2023-05-22T04:52:23.660Z,100176.88
2023-05-22T04:54:53.690Z,100170.38
2023-05-22T04:57:25.470Z,100169.22
2023-05-22T04:59:57.575Z,100171.88
2023-05-22T05:02:28.130Z,100169.38
2023-05-22T05:04:58.987Z,100171.50
2023-05-22T05:07:29.443Z,100164.19
2023-05-22T05:09:58.861Z,100171.84
2023-05-22T05:12:27.848Z,100169.81
2023-05-22T05:14:56.513Z,100178.78
2023-05-22T05:17:24.996Z,100182.00
2023-05-22T05:19:53.382Z,100178.06
2023-05-22T05:22:21.389Z,100183.34
2023-05-22T05:24:50.982Z,100173.22
2023-05-22T05:27:20.738Z,100177.38
2023-05-22T05:29:48.740Z,100175.53
2023-05-22T05:32:23.622Z,100182.19
2023-05-22T05:34:56.441Z,100185.53
2023-05-22T05:37:32.191Z,100182.50
2023-05-22T05:40:04.717Z,100185.63
2023-05-22T05:42:32.891Z,100192.31
2023-05-22T05:45:02.704Z,100183.59
2023-05-22T05:47:33.054Z,100188.41
2023-05-22T05:50:01.920Z,100188.22
2023-05-22T05:52:33.925Z,100191.03
2023-05-22T05:55:09.085Z,100196.00
2023-05-22T05:57:37.485Z,100194.47
2023-05-22T06:00:11.629Z,100201.28
2023-05-22T06:02:43.702Z,100199.94
2023-05-22T06:05:30.596Z,100196.38
2023-05-22T06:08:13.472Z,100200.84
2023-05-22T06:10:43.831Z,100198.16
2023-05-22T06:13:20.299Z,100204.44
2023-05-22T06:15:49.145Z,100198.56
2023-05-22T06:18:18.042Z,100199.34
2023-05-22T06:20:46.476Z,100199.91
2023-05-22T06:23:14.383Z,100204.00
2023-05-22T06:25:44.814Z,100200.06
2023-05-22T06:28:15.322Z,100201.66
2023-05-22T06:30:43.392Z,100200.59
2023-05-22T06:33:17.105Z,100201.13
2023-05-22T06:35:47.767Z,100199.25
2023-05-22T06:38:22.017Z,100201.66
2023-05-22T06:40:53.544Z,100199.72
2023-05-22T06:43:26.446Z,100198.41
2023-05-22T06:46:03.086Z,100200.00
2023-05-22T06:48:42.904Z,100195.38
2023-05-22T06:51:38.131Z,100197.59
2023-05-22T06:54:12.447Z,100204.31
2023-05-22T06:56:48.614Z,100203.81
2023-05-22T06:59:21.855Z,100205.59
2023-05-22T07:01:49.919Z,100210.41
2023-05-22T07:04:23.643Z,100208.66
2023-05-22T07:06:58.849Z,100208.34
2023-05-22T07:09:35.085Z,100213.03
2023-05-22T07:12:08.405Z,100214.56
2023-05-22T07:14:42.293Z,100215.44
2023-05-22T07:17:10.802Z,100216.78
2023-05-22T07:19:44.364Z,100215.44
2023-05-22T07:22:15.482Z,100216.13
2023-05-22T07:24:47.302Z,100218.03
2023-05-22T07:27:18.955Z,100212.53
2023-05-22T07:29:52.730Z,100213.22
2023-05-22T07:32:22.822Z,100214.53
2023-05-22T07:34:51.149Z,100215.00
2023-05-22T07:37:19.634Z,100212.63
2023-05-22T07:39:50.344Z,100206.25
2023-05-22T07:42:23.726Z,100213.78
2023-05-22T07:44:55.895Z,100206.19
2023-05-22T07:47:27.149Z,100211.63
2023-05-22T07:49:55.314Z,100198.03
2023-05-22T07:52:26.253Z,100205.53
2023-05-22T07:54:56.169Z,100199.38
2023-05-22T07:57:27.457Z,100204.34
2023-05-22T08:00:14.145Z,100201.47
2023-05-22T08:02:42.599Z,100191.97
2023-05-22T08:05:13.224Z,100197.38
2023-05-22T08:07:44.409Z,100198.44
2023-05-22T08:10:16.438Z,100202.38
2023-05-22T08:12:48.787Z,100197.84
2023-05-22T08:15:21.929Z,100199.47
2023-05-22T08:17:51.543Z,100207.97
2023-05-22T08:20:22.200Z,100201.34
2023-05-22T08:22:53.677Z,100194.13
2023-05-22T08:25:23.855Z,100201.16
2023-05-22T08:27:53.315Z,100202.97
2023-05-22T08:30:24.355Z,100211.66
2023-05-22T08:32:52.972Z,100202.34
2023-05-22T08:35:21.100Z,100196.94
2023-05-22T08:37:49.175Z,100206.63
2023-05-22T08:40:22.031Z,100193.00
2023-05-22T08:42:54.270Z,100190.06
2023-05-22T08:45:29.959Z,100192.31
2023-05-22T08:48:02.098Z,100187.31
2023-05-22T08:50:30.094Z,100182.16
2023-05-22T08:53:01.610Z,100182.31
2023-05-22T08:55:30.424Z,100179.19
2023-05-22T08:57:59.982Z,100181.66
2023-05-22T09:00:30.324Z,100187.44
2023-05-22T09:03:00.874Z,100189.28
2023-05-22T09:05:29.233Z,100182.84
2023-05-22T09:08:02.707Z,100179.72
2023-05-22T09:10:38.359Z,100183.25
2023-05-22T09:13:11.500Z,100178.69
2023-05-22T09:15:41.935Z,100175.56
2023-05-22T09:18:10.021Z,100177.56
2023-05-22T09:20:41.168Z,100178.97
2023-05-22T09:23:14.486Z,100171.41
2023-05-22T09:25:43.974Z,100177.84
2023-05-22T09:28:13.815Z,100174.94
2023-05-22T09:30:43.635Z,100176.81
2023-05-22T09:33:17.343Z,100172.00
2023-05-22T09:35:47.528Z,100166.59
2023-05-22T09:38:15.979Z,100164.88
2023-05-22T09:40:45.247Z,100164.00
2023-05-22T09:43:16.306Z,100166.03
2023-05-22T09:45:46.437Z,100154.38
2023-05-22T09:48:17.802Z,100166.53
2023-05-22T09:50:48.334Z,100162.97
2023-05-22T09:53:21.070Z,100162.50
2023-05-22T09:55:56.864Z,100160.72
2023-05-22T09:58:28.217Z,100156.94
2023-05-22T10:00:59.300Z,100164.31
2023-05-22T10:03:29.171Z,100165.56
2023-05-22T10:05:59.101Z,100164.31
2023-05-22T10:08:29.679Z,100167.59
2023-05-22T10:10:59.146Z,100159.81
2023-05-22T10:13:27.719Z,100174.06
2023-05-22T10:16:06.035Z,100171.28
2023-05-22T10:18:36.710Z,100158.91
2023-05-22T10:21:04.791Z,100159.16
2023-05-22T10:23:35.151Z,100154.53
2023-05-22T10:26:05.008Z,100153.19
2023-05-22T10:28:39.915Z,100149.84
2023-05-22T10:31:25.928Z,100145.19
2023-05-22T10:34:25.668Z,100142.00
2023-05-22T10:37:17.298Z,100128.84
2023-05-22T10:40:01.925Z,100129.84
2023-05-22T10:42:31.529Z,100139.94
2023-05-22T10:45:02.522Z,100126.44
2023-05-22T10:47:36.402Z,100128.63
2023-05-22T10:50:13.489Z,100121.44
2023-05-22T10:52:41.952Z,100118.97
2023-05-22T10:55:11.773Z,100122.38
2023-05-22T10:57:40.698Z,100122.66
2023-05-22T11:00:11.307Z,100122.88
2023-05-22T11:02:43.723Z,100121.94
2023-05-22T11:05:35.644Z,100120.31
2023-05-22T11:08:31.064Z,100120.16
2023-05-22T11:11:00.490Z,100107.25
2023-05-22T11:13:32.293Z,100108.88
2023-05-22T11:16:05.421Z,100114.31
2023-05-22T11:18:34.785Z,100107.00
2023-05-22T11:21:03.951Z,100104.75
2023-05-22T11:23:37.663Z,100111.56
2023-05-22T11:26:25.599Z,100102.50
2023-05-22T11:29:01.479Z,100105.31
2023-05-22T11:31:31.634Z,100100.09
2023-05-22T11:34:04.027Z,100100.22
2023-05-22T11:36:32.798Z,100090.16
2023-05-22T11:39:03.418Z,100094.97
2023-05-22T11:41:33.858Z,100094.91
2023-05-22T11:44:06.478Z,100094.97
2023-05-22T11:46:35.880Z,100088.09
2023-05-22T11:49:08.215Z,100080.97
2023-05-22T11:51:36.289Z,100079.09
2023-05-22T11:54:06.590Z,100088.13
2023-05-22T11:56:35.415Z,100091.75
2023-05-22T11:59:05.013Z,100087.81
2023-05-22T12:01:34.489Z,100080.75
2023-05-22T12:04:02.685Z,100078.47
2023-05-22T12:06:33.708Z,100072.66
2023-05-22T12:09:03.062Z,100067.31
2023-05-22T12:11:37.007Z,100065.34
2023-05-22T12:14:14.147Z,100067.59
2023-05-22T12:16:42.434Z,100066.72
2023-05-22T12:19:13.030Z,100058.81
2023-05-22T12:21:42.800Z,100057.56
2023-05-22T12:24:12.848Z,100050.84
2023-05-22T12:26:51.592Z,100051.34
2023-05-22T12:29:24.704Z,100034.09
2023-05-22T12:31:54.380Z,100033.38
2023-05-22T12:34:23.897Z,100032.63
2023-05-22T12:36:56.125Z,100032.16
2023-05-22T12:39:24.337Z,100029.53
2023-05-22T12:41:53.822Z,100024.41
2023-05-22T12:44:22.859Z,100030.81
2023-05-22T12:46:51.228Z,100020.75
2023-05-22T12:49:19.592Z,100022.31
2023-05-22T12:51:48.272Z,100020.50
2023-05-22T12:54:19.139Z,100021.03
2023-05-22T12:56:47.887Z,100029.34
2023-05-22T12:59:15.781Z,100018.66
2023-05-22T13:01:45.275Z,100018.03
2023-05-22T13:04:13.341Z,100019.41
2023-05-22T13:06:44.719Z,100019.94
2023-05-22T13:09:16.894Z,100007.38
2023-05-22T13:11:46.674Z,100009.16
2023-05-22T13:14:14.941Z,100011.03
2023-05-22T13:16:43.275Z,100020.44
2023-05-22T13:19:12.246Z,100013.78
2023-05-22T13:21:44.371Z,100014.41
2023-05-22T13:24:12.388Z,100017.44
2023-05-22T13:26:40.344Z,100014.75
2023-05-22T13:29:09.771Z,100028.44
2023-05-22T13:31:38.289Z,100021.09
2023-05-22T13:34:06.293Z,100020.84
2023-05-22T13:36:36.579Z,100013.50
2023-05-22T13:39:04.898Z,100013.47
2023-05-22T13:41:32.937Z,100009.91
2023-05-22T13:44:00.972Z,100004.13
2023-05-22T13:46:31.516Z,100001.00
2023-05-22T13:49:00.776Z,100001.53
2023-05-22T13:51:29.405Z,99997.97
2023-05-22T13:53:57.784Z,100000.16
2023-05-22T13:56:26.235Z,99999.50
2023-05-22T13:58:56.224Z,100001.03
2023-05-22T14:01:24.888Z,99988.72
2023-05-22T14:03:55.886Z,99992.19
2023-05-22T14:06:24.605Z,100005.50
2023-05-22T14:08:52.749Z,99991.59
2023-05-22T14:11:22.009Z,99985.00
2023-05-22T14:13:54.833Z,99996.16
2023-05-22T14:16:23.879Z,99986.25
2023-05-22T14:18:52.300Z,99987.69
2023-05-22T14:21:22.086Z,99983.47
2023-05-22T14:23:53.705Z,99987.19
2023-05-22T14:26:22.540Z,99980.53
2023-05-22T14:28:52.018Z,99973.41
2023-05-22T14:31:20.566Z,99961.75
2023-05-22T14:33:51.344Z,99959.50
2023-05-22T14:36:19.289Z,99955.81
2023-05-22T14:38:51.842Z,99956.97
2023-05-22T14:41:19.894Z,99953.25
2023-05-22T14:43:50.867Z,99948.63
2023-05-22T14:46:19.442Z,99951.97
2023-05-22T14:48:47.571Z,99958.38
2023-05-22T14:51:16.723Z,99959.63
2023-05-22T14:53:48.178Z,99961.97
2023-05-22T14:56:18.022Z,99963.75
2023-05-22T14:58:49.423Z,99960.75
2023-05-22T15:01:18.241Z,99963.59
2023-05-22T15:03:46.886Z,99971.53
2023-05-22T15:06:16.035Z,99973.31
2023-05-22T15:08:46.208Z,99972.03
2023-05-22T15:11:17.889Z,99972.03
2023-05-22T15:13:51.077Z,99968.66
2023-05-22T15:16:20.110Z,99956.28
2023-05-22T15:18:49.246Z,99953.97
2023-05-22T15:21:17.770Z,99963.38
2023-05-22T15:23:50.111Z,99963.66
2023-05-22T15:26:22.638Z,99971.06
2023-05-22T15:28:52.589Z,99973.88
2023-05-22T15:31:21.215Z,99970.41
2023-05-22T15:33:52.434Z,99968.50
2023-05-22T15:36:20.816Z,99970.19
2023-05-22T15:38:49.388Z,99981.28
2023-05-22T15:41:21.251Z,99987.50
2023-05-22T15:43:50.373Z,100015.25
2023-05-22T15:46:22.136Z,100023.22
2023-05-22T15:48:52.041Z,100052.44
2023-05-22T15:51:20.166Z,100063.84
2023-05-22T15:53:51.542Z,100065.94
2023-05-22T15:56:21.501Z,100066.47
2023-05-22T15:58:49.951Z,100065.41
2023-05-22T16:01:19.535Z,100069.66
2023-05-22T16:03:47.934Z,100064.25
2023-05-22T16:06:19.872Z,100077.53
2023-05-22T16:08:48.257Z,100087.03
2023-05-22T16:11:16.764Z,100089.09
2023-05-22T16:13:45.268Z,100088.25
2023-05-22T16:16:13.730Z,100091.16
2023-05-22T16:18:44.255Z,100109.13
2023-05-22T16:21:17.370Z,100098.09
2023-05-22T16:23:48.871Z,100096.53
2023-05-22T16:26:17.184Z,100084.06
2023-05-22T16:28:48.174Z,100073.81
2023-05-22T16:31:20.837Z,100078.72
2023-05-22T16:33:50.341Z,100071.25
2023-05-22T16:36:19.124Z,100062.97
2023-05-22T16:38:49.772Z,100069.41
2023-05-22T16:41:18.276Z,100068.50
2023-05-22T16:43:46.368Z,100063.28
2023-05-22T16:46:14.426Z,100069.66
2023-05-22T16:48:51.626Z,100074.25
2023-05-22T16:51:22.419Z,100067.63
2023-05-22T16:53:50.975Z,100069.03
2023-05-22T16:56:20.757Z,100071.94
2023-05-22T16:58:48.737Z,100071.97
2023-05-22T17:01:17.402Z,100080.88
2023-05-22T17:03:47.884Z,100080.56
2023-05-22T17:06:20.171Z,100098.34
2023-05-22T17:08:49.691Z,100109.13
2023-05-22T17:11:24.430Z,100099.63
2023-05-22T17:13:52.688Z,100091.94
2023-05-22T17:16:21.576Z,100089.06
2023-05-22T17:18:54.973Z,100099.22
2023-05-22T17:21:27.502Z,100097.75
2023-05-22T17:23:59.188Z,100109.34
2023-05-22T17:26:33.222Z,100112.25
2023-05-22T17:29:01.999Z,100123.44
2023-05-22T17:31:30.417Z,100141.59
2023-05-22T17:34:01.275Z,100161.03
2023-05-22T17:36:31.879Z,100181.22
2023-05-22T17:39:00.179Z,100179.06
2023-05-22T17:41:31.169Z,100186.50
2023-05-22T17:44:03.556Z,100204.19
2023-05-22T17:46:32.020Z,100208.97
2023-05-22T17:49:04.449Z,100228.13
2023-05-22T17:51:36.850Z,100234.38
2023-05-22T17:54:08.203Z,100255.22
2023-05-22T17:56:39.077Z,100251.03
2023-05-22T17:59:09.294Z,100262.63
2023-05-22T18:01:37.344Z,100269.94
2023-05-22T18:04:06.380Z,100253.63
2023-05-22T18:06:37.038Z,100241.31
2023-05-22T18:09:07.713Z,100234.88
2023-05-22T18:11:35.893Z,100227.50
2023-05-22T18:14:04.769Z,100212.91
2023-05-22T18:16:32.977Z,100214.16
2023-05-22T18:19:04.058Z,100219.59
2023-05-22T18:21:39.000Z,100213.22
2023-05-22T18:24:11.436Z,100204.34
2023-05-22T18:26:39.502Z,100196.31
2023-05-22T18:29:07.816Z,100189.69
2023-05-22T18:31:38.067Z,100201.84
2023-05-22T18:34:06.851Z,100196.31
2023-05-22T18:36:36.601Z,100188.28
2023-05-22T18:39:07.371Z,100193.03
2023-05-22T18:41:39.229Z,100184.38
2023-05-22T18:44:08.587Z,100169.16
2023-05-22T18:46:36.828Z,100169.38
2023-05-22T18:49:05.410Z,100158.09
2023-05-22T18:51:37.985Z,100154.41
2023-05-22T18:54:06.284Z,100147.00
2023-05-22T18:56:34.539Z,100141.25
2023-05-22T18:59:02.489Z,100139.03
2023-05-22T19:01:33.730Z,100128.66
2023-05-22T19:04:01.876Z,100125.25
2023-05-22T19:06:30.456Z,100117.13
2023-05-22T19:09:01.246Z,100123.25
2023-05-22T19:11:30.959Z,100151.06
2023-05-22T19:13:59.799Z,100138.56
2023-05-22T19:16:31.929Z,100135.19
2023-05-22T19:19:00.700Z,100136.53
2023-05-22T19:21:32.540Z,100135.63
2023-05-22T19:24:02.425Z,100143.44
2023-05-22T19:26:30.784Z,100142.97
2023-05-22T19:28:59.460Z,100142.72
2023-05-22T19:31:31.209Z,100147.81
2023-05-22T19:34:02.309Z,100152.53
2023-05-22T19:36:31.326Z,100156.59
2023-05-22T19:39:06.938Z,100168.28
2023-05-22T19:41:35.038Z,100159.16
2023-05-22T19:44:03.807Z,100167.81
2023-05-22T19:46:35.529Z,100170.22
2023-05-22T19:49:05.685Z,100185.00
2023-05-22T19:51:35.289Z,100176.88
2023-05-22T19:54:05.424Z,100182.63
2023-05-22T19:56:36.637Z,100174.78
2023-05-22T19:59:07.870Z,100174.72
2023-05-22T20:01:38.755Z,100178.13
2023-05-22T20:04:08.975Z,100195.66
2023-05-22T20:06:39.434Z,100198.03
2023-05-22T20:09:09.301Z,100200.09
2023-05-22T20:11:40.356Z,100209.28
2023-05-22T20:14:08.700Z,100218.97
2023-05-22T20:16:37.451Z,100221.84
2023-05-22T20:19:05.465Z,100220.16
2023-05-22T20:21:33.924Z,100228.00
2023-05-22T20:24:04.927Z,100221.00
2023-05-22T20:26:37.538Z,100223.22
2023-05-22T20:29:05.667Z,100229.13
2023-05-22T20:31:34.689Z,100225.16
2023-05-22T20:34:06.296Z,100225.16
2023-05-22T20:36:35.071Z,100228.84
2023-05-22T20:39:05.903Z,100236.22
2023-05-22T20:41:35.048Z,100245.91
2023-05-22T20:44:06.672Z,100240.56
2023-05-22T20:46:35.586Z,100247.56
2023-05-22T20:49:04.868Z,100255.41
2023-05-22T20:51:34.545Z,100262.09
2023-05-22T20:54:02.770Z,100265.44
2023-05-22T20:56:31.351Z,100268.63
2023-05-22T20:58:59.676Z,100266.72
2023-05-22T21:01:31.777Z,100268.94
2023-05-22T21:04:01.098Z,100278.13
2023-05-22T21:06:31.476Z,100266.13
2023-05-22T21:09:01.730Z,100268.50
2023-05-22T21:11:30.711Z,100264.69
2023-05-22T21:13:59.363Z,100264.22
2023-05-22T21:16:27.681Z,100265.63
2023-05-22T21:18:57.339Z,100263.28
2023-05-22T21:21:28.011Z,100268.16
2023-05-22T21:23:58.375Z,100268.72
2023-05-22T21:26:26.377Z,100270.91
2023-05-22T21:28:57.617Z,100267.59
2023-05-22T21:31:25.822Z,100260.59
2023-05-22T21:33:58.109Z,100267.94
2023-05-22T21:36:29.048Z,100267.28
2023-05-22T21:39:00.245Z,100276.16
2023-05-22T21:41:28.738Z,100269.31
2023-05-22T21:43:59.346Z,100270.34
2023-05-22T21:46:27.334Z,100276.88
2023-05-22T21:49:03.269Z,100277.69
2023-05-22T21:51:32.006Z,100280.53
2023-05-22T21:54:01.290Z,100276.22
2023-05-22T21:56:31.024Z,100280.88
2023-05-22T21:58:59.894Z,100284.56
2023-05-22T22:01:28.306Z,100290.28
2023-05-22T22:03:56.909Z,100293.47
2023-05-22T22:06:26.891Z,100295.84
2023-05-22T22:09:00.714Z,100300.69
2023-05-22T22:11:32.304Z,100298.19
2023-05-22T22:14:00.422Z,100302.72
2023-05-22T22:16:35.992Z,100302.91
2023-05-22T22:19:04.879Z,100305.94
2023-05-22T22:21:38.210Z,100308.75
2023-05-22T22:24:07.022Z,100313.44
2023-05-22T22:26:35.563Z,100312.44
2023-05-22T22:29:04.774Z,100306.63
2023-05-22T22:31:33.674Z,100315.66
2023-05-22T22:34:06.730Z,100313.47
2023-05-22T22:36:36.534Z,100319.19
2023-05-22T22:39:07.355Z,100314.84
2023-05-22T22:41:35.537Z,100309.69
2023-05-22T22:44:08.032Z,100310.84
2023-05-22T22:46:37.440Z,100310.38
2023-05-22T22:49:05.785Z,100304.22
2023-05-22T22:51:34.897Z,100313.38
2023-05-22T22:54:05.544Z,100318.88
2023-05-22T22:56:35.935Z,100311.72
2023-05-22T22:59:04.537Z,100325.22
2023-05-22T23:01:33.979Z,100321.06
2023-05-22T23:04:02.974Z,100324.88
2023-05-22T23:06:33.031Z,100329.75
2023-05-22T23:09:03.919Z,100330.91
2023-05-22T23:11:37.861Z,100334.59
2023-05-22T23:14:09.283Z,100331.91
2023-05-22T23:16:40.816Z,100329.63
2023-05-22T23:19:12.073Z,100334.31
2023-05-22T23:21:40.420Z,100335.28
2023-05-22T23:24:12.416Z,100336.13
2023-05-22T23:26:41.154Z,100338.94
2023-05-22T23:29:10.699Z,100336.13
2023-05-22T23:31:40.319Z,100334.31
2023-05-22T23:34:09.470Z,100335.13
2023-05-22T23:36:37.952Z,100332.94
2023-05-22T23:39:06.797Z,100329.09
2023-05-22T23:41:38.581Z,100333.41
2023-05-22T23:44:07.154Z,100334.44
2023-05-22T23:46:37.587Z,100333.94
2023-05-22T23:49:06.016Z,100339.63
2023-05-22T23:51:34.305Z,100331.16
2023-05-22T23:54:02.967Z,100335.78
2023-05-22T23:56:34.085Z,100337.66
2023-05-22T23:59:05.322Z,100332.31
